sensor_id;sensor_type;location;lat;lon;timestamp;temperature;humidity
39277;DHT22;63149;48.086;-1.606;2022-09-21T05:02:07;12.50;99.90
39277;DHT22;63149;48.086;-1.606;2022-09-21T05:04:34;12.40;99.90
39277;DHT22;63149;48.086;-1.606;2022-09-21T05:07:01;12.40;99.90
39277;DHT22;63149;48.086;-1.606;2022-09-21T05:09:28;12.40;99.90
39277;DHT22;63149;48.086;-1.606;2022-09-21T05:12:12;12.40;99.90
39277;DHT22;63149;48.086;-1.606;2022-09-21T05:14:39;12.40;99.90
39277;DHT22;63149;48.086;-1.606;2022-09-21T05:17:09;12.40;99.90
39277;DHT22;63149;48.086;-1.606;2022-09-21T05:19:36;12.40;99.90
39277;DHT22;63149;48.086;-1.606;2022-09-21T05:22:03;12.30;99.90
39277;DHT22;63149;48.086;-1.606;2022-09-21T05:24:30;12.30;99.90
39277;DHT22;63149;48.086;-1.606;2022-09-21T05:26:56;12.30;99.90
39277;DHT22;63149;48.086;-1.606;2022-09-21T05:29:23;12.20;99.90
39277;DHT22;63149;48.086;-1.606;2022-09-21T05:31:51;12.20;99.90
39277;DHT22;63149;48.086;-1.606;2022-09-21T05:34:30;12.30;99.90
39277;DHT22;63149;48.086;-1.606;2022-09-21T05:37:00;12.20;99.90
39277;DHT22;63149;48.086;-1.606;2022-09-21T05:39:28;12.20;99.90
39277;DHT22;63149;48.086;-1.606;2022-09-21T05:41:55;12.20;99.90
39277;DHT22;63149;48.086;-1.606;2022-09-21T05:44:22;12.20;99.90
39277;DHT22;63149;48.086;-1.606;2022-09-21T05:46:51;12.20;99.90
39277;DHT22;63149;48.086;-1.606;2022-09-21T05:49:20;12.10;99.90
39277;DHT22;63149;48.086;-1.606;2022-09-21T05:51:51;12.10;99.90
39277;DHT22;63149;48.086;-1.606;2022-09-21T05:54:20;12.20;99.90
39277;DHT22;63149;48.086;-1.606;2022-09-21T05:56:51;12.20;99.90
39277;DHT22;63149;48.086;-1.606;2022-09-21T05:59:25;12.20;99.90
39277;DHT22;63149;48.086;-1.606;2022-09-21T06:01:58;12.20;99.90
39277;DHT22;63149;48.086;-1.606;2022-09-21T06:04:29;12.20;99.90
39277;DHT22;63149;48.086;-1.606;2022-09-21T06:06:57;12.10;99.90
39277;DHT22;63149;48.086;-1.606;2022-09-21T06:09:24;12.10;99.90
39277;DHT22;63149;48.086;-1.606;2022-09-21T06:11:52;12.10;99.90
39277;DHT22;63149;48.086;-1.606;2022-09-21T06:14:18;12.10;99.90
39277;DHT22;63149;48.086;-1.606;2022-09-21T06:16:50;12.00;99.90
39277;DHT22;63149;48.086;-1.606;2022-09-21T06:19:17;12.10;99.90
39277;DHT22;63149;48.086;-1.606;2022-09-21T06:21:44;12.10;99.90
39277;DHT22;63149;48.086;-1.606;2022-09-21T06:24:12;12.10;99.90
39277;DHT22;63149;48.086;-1.606;2022-09-21T06:26:39;12.10;99.90
39277;DHT22;63149;48.086;-1.606;2022-09-21T06:29:05;12.10;99.90
39277;DHT22;63149;48.086;-1.606;2022-09-21T06:31:32;12.10;99.90
39277;DHT22;63149;48.086;-1.606;2022-09-21T06:33:59;12.10;99.90
39277;DHT22;63149;48.086;-1.606;2022-09-21T06:36:26;12.10;99.90
39277;DHT22;63149;48.086;-1.606;2022-09-21T06:38:53;12.20;99.90
39277;DHT22;63149;48.086;-1.606;2022-09-21T06:41:21;12.20;99.90
39277;DHT22;63149;48.086;-1.606;2022-09-21T06:43:47;12.20;99.90
39277;DHT22;63149;48.086;-1.606;2022-09-21T06:46:14;12.30;99.90
39277;DHT22;63149;48.086;-1.606;2022-09-21T06:48:41;12.30;99.90
39277;DHT22;63149;48.086;-1.606;2022-09-21T06:51:08;12.30;99.90
39277;DHT22;63149;48.086;-1.606;2022-09-21T06:53:35;12.30;99.90
39277;DHT22;63149;48.086;-1.606;2022-09-21T06:56:02;12.30;99.90
39277;DHT22;63149;48.086;-1.606;2022-09-21T06:58:30;12.30;99.90
39277;DHT22;63149;48.086;-1.606;2022-09-21T07:01:02;12.30;99.90
39277;DHT22;63149;48.086;-1.606;2022-09-21T07:03:29;12.30;99.90
39277;DHT22;63149;48.086;-1.606;2022-09-21T07:05:56;12.30;99.90
39277;DHT22;63149;48.086;-1.606;2022-09-21T07:08:23;12.30;99.90
39277;DHT22;63149;48.086;-1.606;2022-09-21T07:10:51;12.30;99.90
39277;DHT22;63149;48.086;-1.606;2022-09-21T07:13:18;12.40;99.90
39277;DHT22;63149;48.086;-1.606;2022-09-21T07:15:46;12.40;99.90
39277;DHT22;63149;48.086;-1.606;2022-09-21T07:18:13;12.40;99.90
39277;DHT22;63149;48.086;-1.606;2022-09-21T07:20:39;12.50;99.90
39277;DHT22;63149;48.086;-1.606;2022-09-21T07:23:10;12.50;99.90
39277;DHT22;63149;48.086;-1.606;2022-09-21T07:25:39;12.50;99.90
39277;DHT22;63149;48.086;-1.606;2022-09-21T07:28:05;12.60;99.90
39277;DHT22;63149;48.086;-1.606;2022-09-21T07:30:32;12.60;99.90
39277;DHT22;63149;48.086;-1.606;2022-09-21T07:33:00;12.70;99.90
39277;DHT22;63149;48.086;-1.606;2022-09-21T07:35:27;12.70;99.90
39277;DHT22;63149;48.086;-1.606;2022-09-21T07:37:56;12.70;99.90
39277;DHT22;63149;48.086;-1.606;2022-09-21T07:40:22;12.80;99.90
39277;DHT22;63149;48.086;-1.606;2022-09-21T07:42:49;12.80;99.90
39277;DHT22;63149;48.086;-1.606;2022-09-21T07:45:16;12.90;99.90
39277;DHT22;63149;48.086;-1.606;2022-09-21T07:47:43;12.90;99.90
39277;DHT22;63149;48.086;-1.606;2022-09-21T07:50:12;13.00;99.90
39277;DHT22;63149;48.086;-1.606;2022-09-21T07:52:38;13.10;99.90
39277;DHT22;63149;48.086;-1.606;2022-09-21T07:55:05;13.20;99.90
39277;DHT22;63149;48.086;-1.606;2022-09-21T07:57:32;13.20;99.90
39277;DHT22;63149;48.086;-1.606;2022-09-21T08:00:16;13.30;99.90
39277;DHT22;63149;48.086;-1.606;2022-09-21T08:02:43;13.40;99.90
39277;DHT22;63149;48.086;-1.606;2022-09-21T08:05:10;13.50;99.90
39277;DHT22;63149;48.086;-1.606;2022-09-21T08:07:38;13.60;99.90
39277;DHT22;63149;48.086;-1.606;2022-09-21T08:10:05;13.70;99.90
39277;DHT22;63149;48.086;-1.606;2022-09-21T08:12:31;13.80;99.90
39277;DHT22;63149;48.086;-1.606;2022-09-21T08:14:58;14.00;99.90
39277;DHT22;63149;48.086;-1.606;2022-09-21T08:17:25;14.10;99.90
39277;DHT22;63149;48.086;-1.606;2022-09-21T08:19:52;14.30;99.90
39277;DHT22;63149;48.086;-1.606;2022-09-21T08:22:19;14.50;99.90
39277;DHT22;63149;48.086;-1.606;2022-09-21T08:24:50;14.70;99.90
39277;DHT22;63149;48.086;-1.606;2022-09-21T08:27:17;14.90;99.90
39277;DHT22;63149;48.086;-1.606;2022-09-21T08:29:44;15.20;99.90
39277;DHT22;63149;48.086;-1.606;2022-09-21T08:32:11;15.70;99.90
39277;DHT22;63149;48.086;-1.606;2022-09-21T08:34:38;16.60;99.90
39277;DHT22;63149;48.086;-1.606;2022-09-21T08:37:04;17.30;99.90
39277;DHT22;63149;48.086;-1.606;2022-09-21T08:39:31;17.90;99.90
39277;DHT22;63149;48.086;-1.606;2022-09-21T08:44:42;19.00;99.90
39277;DHT22;63149;48.086;-1.606;2022-09-21T08:47:12;19.20;99.90
39277;DHT22;63149;48.086;-1.606;2022-09-21T08:49:40;19.70;99.90
39277;DHT22;63149;48.086;-1.606;2022-09-21T08:52:11;20.10;99.90
39277;DHT22;63149;48.086;-1.606;2022-09-21T08:54:41;20.10;99.90
39277;DHT22;63149;48.086;-1.606;2022-09-21T08:57:10;19.90;99.90
39277;DHT22;63149;48.086;-1.606;2022-09-21T08:59:37;19.90;99.90
39277;DHT22;63149;48.086;-1.606;2022-09-21T09:02:11;20.80;99.90
39277;DHT22;63149;48.086;-1.606;2022-09-21T09:04:47;20.90;99.90
39277;DHT22;63149;48.086;-1.606;2022-09-21T09:07:22;22.10;99.90
39277;DHT22;63149;48.086;-1.606;2022-09-21T09:09:54;22.80;99.90
39277;DHT22;63149;48.086;-1.606;2022-09-21T09:12:29;23.40;99.90
39277;DHT22;63149;48.086;-1.606;2022-09-21T09:17:51;23.50;99.90
39277;DHT22;63149;48.086;-1.606;2022-09-21T09:20:20;24.70;99.90
39277;DHT22;63149;48.086;-1.606;2022-09-21T09:22:49;25.00;99.90
39277;DHT22;63149;48.086;-1.606;2022-09-21T09:25:20;25.50;99.90
39277;DHT22;63149;48.086;-1.606;2022-09-21T09:27:49;25.10;97.80
39277;DHT22;63149;48.086;-1.606;2022-09-21T09:30:19;24.90;97.50
39277;DHT22;63149;48.086;-1.606;2022-09-21T09:32:50;25.00;98.00
39277;DHT22;63149;48.086;-1.606;2022-09-21T09:35:21;25.70;97.20
39277;DHT22;63149;48.086;-1.606;2022-09-21T09:37:50;26.10;95.70
39277;DHT22;63149;48.086;-1.606;2022-09-21T09:40:18;25.60;94.50
39277;DHT22;63149;48.086;-1.606;2022-09-21T09:42:52;26.00;94.40
39277;DHT22;63149;48.086;-1.606;2022-09-21T09:45:33;26.30;93.70
39277;DHT22;63149;48.086;-1.606;2022-09-21T09:50:47;27.50;91.20
39277;DHT22;63149;48.086;-1.606;2022-09-21T09:53:15;27.00;88.10
39277;DHT22;63149;48.086;-1.606;2022-09-21T09:55:43;28.00;90.90
39277;DHT22;63149;48.086;-1.606;2022-09-21T09:58:15;28.50;87.70
39277;DHT22;63149;48.086;-1.606;2022-09-21T10:00:42;28.70;83.30
39277;DHT22;63149;48.086;-1.606;2022-09-21T10:03:14;28.30;80.70
39277;DHT22;63149;48.086;-1.606;2022-09-21T10:05:41;28.50;79.60
39277;DHT22;63149;48.086;-1.606;2022-09-21T10:08:16;29.10;79.30
39277;DHT22;63149;48.086;-1.606;2022-09-21T10:10:51;28.50;75.70
39277;DHT22;63149;48.086;-1.606;2022-09-21T10:13:22;27.40;74.50
39277;DHT22;63149;48.086;-1.606;2022-09-21T10:15:50;27.00;73.50
39277;DHT22;63149;48.086;-1.606;2022-09-21T10:18:19;26.40;76.20
39277;DHT22;63149;48.086;-1.606;2022-09-21T10:20:53;26.80;74.70
39277;DHT22;63149;48.086;-1.606;2022-09-21T10:23:21;28.00;75.50
39277;DHT22;63149;48.086;-1.606;2022-09-21T10:25:52;29.10;75.80
39277;DHT22;63149;48.086;-1.606;2022-09-21T10:28:19;28.90;69.50
39277;DHT22;63149;48.086;-1.606;2022-09-21T10:30:47;29.00;69.20
39277;DHT22;63149;48.086;-1.606;2022-09-21T10:33:17;29.60;70.20
39277;DHT22;63149;48.086;-1.606;2022-09-21T10:35:47;30.30;67.50
39277;DHT22;63149;48.086;-1.606;2022-09-21T10:38:15;30.40;67.20
39277;DHT22;63149;48.086;-1.606;2022-09-21T10:40:43;31.40;67.60
39277;DHT22;63149;48.086;-1.606;2022-09-21T10:43:19;30.20;62.00
39277;DHT22;63149;48.086;-1.606;2022-09-21T10:45:51;30.00;62.50
39277;DHT22;63149;48.086;-1.606;2022-09-21T10:48:19;30.50;63.70
39277;DHT22;63149;48.086;-1.606;2022-09-21T10:50:47;30.50;59.40
39277;DHT22;63149;48.086;-1.606;2022-09-21T10:53:18;31.10;59.00
39277;DHT22;63149;48.086;-1.606;2022-09-21T10:55:49;31.40;60.10
39277;DHT22;63149;48.086;-1.606;2022-09-21T10:58:18;30.60;57.40
39277;DHT22;63149;48.086;-1.606;2022-09-21T11:00:46;31.20;56.50
39277;DHT22;63149;48.086;-1.606;2022-09-21T11:03:31;31.80;56.60
39277;DHT22;63149;48.086;-1.606;2022-09-21T11:06:00;32.20;58.20
39277;DHT22;63149;48.086;-1.606;2022-09-21T11:08:29;32.20;55.50
39277;DHT22;63149;48.086;-1.606;2022-09-21T11:13:45;33.80;55.60
39277;DHT22;63149;48.086;-1.606;2022-09-21T11:16:13;33.70;53.50
39277;DHT22;63149;48.086;-1.606;2022-09-21T11:18:42;33.40;53.30
39277;DHT22;63149;48.086;-1.606;2022-09-21T11:21:12;34.60;53.70
39277;DHT22;63149;48.086;-1.606;2022-09-21T11:23:43;35.50;51.60
39277;DHT22;63149;48.086;-1.606;2022-09-21T11:26:14;34.80;50.30
39277;DHT22;63149;48.086;-1.606;2022-09-21T11:28:46;32.60;50.60
39277;DHT22;63149;48.086;-1.606;2022-09-21T11:31:23;33.90;50.40
39277;DHT22;63149;48.086;-1.606;2022-09-21T11:34:02;33.30;50.20
39277;DHT22;63149;48.086;-1.606;2022-09-21T11:36:34;32.30;49.90
39277;DHT22;63149;48.086;-1.606;2022-09-21T11:39:05;31.50;50.10
39277;DHT22;63149;48.086;-1.606;2022-09-21T11:41:42;32.60;50.50
39277;DHT22;63149;48.086;-1.606;2022-09-21T11:44:15;33.20;48.70
39277;DHT22;63149;48.086;-1.606;2022-09-21T11:46:46;33.80;49.30
39277;DHT22;63149;48.086;-1.606;2022-09-21T11:49:20;34.50;47.90
39277;DHT22;63149;48.086;-1.606;2022-09-21T11:51:56;35.00;47.20
39277;DHT22;63149;48.086;-1.606;2022-09-21T11:54:48;36.00;47.80
39277;DHT22;63149;48.086;-1.606;2022-09-21T11:57:19;36.20;46.20
39277;DHT22;63149;48.086;-1.606;2022-09-21T11:59:53;36.80;45.20
39277;DHT22;63149;48.086;-1.606;2022-09-21T12:05:11;38.10;43.20
39277;DHT22;63149;48.086;-1.606;2022-09-21T12:07:48;37.90;42.00
39277;DHT22;63149;48.086;-1.606;2022-09-21T12:13:05;37.30;40.80
39277;DHT22;63149;48.086;-1.606;2022-09-21T12:15:43;37.00;40.90
39277;DHT22;63149;48.086;-1.606;2022-09-21T12:18:12;37.50;41.70
39277;DHT22;63149;48.086;-1.606;2022-09-21T12:20:44;37.50;41.40
39277;DHT22;63149;48.086;-1.606;2022-09-21T12:23:14;38.50;39.90
39277;DHT22;63149;48.086;-1.606;2022-09-21T12:25:43;39.20;39.90
39277;DHT22;63149;48.086;-1.606;2022-09-21T12:28:13;39.60;38.80
39277;DHT22;63149;48.086;-1.606;2022-09-21T12:30:44;39.00;39.30
39277;DHT22;63149;48.086;-1.606;2022-09-21T12:33:14;37.50;38.00
39277;DHT22;63149;48.086;-1.606;2022-09-21T12:35:43;36.20;39.50
39277;DHT22;63149;48.086;-1.606;2022-09-21T12:38:12;35.30;40.40
39277;DHT22;63149;48.086;-1.606;2022-09-21T12:40:42;35.40;41.60
39277;DHT22;63149;48.086;-1.606;2022-09-21T12:43:19;37.00;40.30
39277;DHT22;63149;48.086;-1.606;2022-09-21T12:45:49;35.70;40.00
39277;DHT22;63149;48.086;-1.606;2022-09-21T12:48:21;33.20;43.00
39277;DHT22;63149;48.086;-1.606;2022-09-21T12:50:51;31.10;45.90
39277;DHT22;63149;48.086;-1.606;2022-09-21T12:53:21;30.00;48.60
39277;DHT22;63149;48.086;-1.606;2022-09-21T12:55:49;28.60;51.00
39277;DHT22;63149;48.086;-1.606;2022-09-21T12:58:23;27.60;53.40
39277;DHT22;63149;48.086;-1.606;2022-09-21T13:00:59;26.80;54.80
39277;DHT22;63149;48.086;-1.606;2022-09-21T13:03:31;25.70;56.70
39277;DHT22;63149;48.086;-1.606;2022-09-21T13:06:04;25.30;58.90
39277;DHT22;63149;48.086;-1.606;2022-09-21T13:08:34;24.60;61.80
39277;DHT22;63149;48.086;-1.606;2022-09-21T13:11:02;24.20;64.10
39277;DHT22;63149;48.086;-1.606;2022-09-21T13:13:30;23.60;64.40
39277;DHT22;63149;48.086;-1.606;2022-09-21T13:15:59;23.50;67.10
39277;DHT22;63149;48.086;-1.606;2022-09-21T13:18:27;23.10;67.00
39277;DHT22;63149;48.086;-1.606;2022-09-21T13:20:56;22.90;70.20
39277;DHT22;63149;48.086;-1.606;2022-09-21T13:23:25;22.70;72.20
39277;DHT22;63149;48.086;-1.606;2022-09-21T13:26:01;22.50;71.70
39277;DHT22;63149;48.086;-1.606;2022-09-21T13:34:05;22.00;74.00
39277;DHT22;63149;48.086;-1.606;2022-09-21T13:36:41;22.00;75.00
39277;DHT22;63149;48.086;-1.606;2022-09-21T13:39:15;21.60;75.60
39277;DHT22;63149;48.086;-1.606;2022-09-21T13:41:42;21.50;78.10
39277;DHT22;63149;48.086;-1.606;2022-09-21T13:44:19;21.40;77.40
39277;DHT22;63149;48.086;-1.606;2022-09-21T13:49:37;21.30;77.50
39277;DHT22;63149;48.086;-1.606;2022-09-21T13:52:05;21.30;77.80
39277;DHT22;63149;48.086;-1.606;2022-09-21T13:54:32;21.30;79.20
39277;DHT22;63149;48.086;-1.606;2022-09-21T13:57:04;21.30;80.60
39277;DHT22;63149;48.086;-1.606;2022-09-21T13:59:33;21.20;79.90
39277;DHT22;63149;48.086;-1.606;2022-09-21T14:02:03;21.10;81.20
39277;DHT22;63149;48.086;-1.606;2022-09-21T14:04:45;21.10;81.80
39277;DHT22;63149;48.086;-1.606;2022-09-21T14:07:14;21.20;81.10
39277;DHT22;63149;48.086;-1.606;2022-09-21T14:09:49;21.20;82.00
39277;DHT22;63149;48.086;-1.606;2022-09-21T14:12:18;21.20;81.70
39277;DHT22;63149;48.086;-1.606;2022-09-21T14:17:34;21.20;80.90
39277;DHT22;63149;48.086;-1.606;2022-09-21T14:20:04;21.20;81.60
39277;DHT22;63149;48.086;-1.606;2022-09-21T14:22:36;21.10;81.30
39277;DHT22;63149;48.086;-1.606;2022-09-21T14:25:21;21.00;81.90
39277;DHT22;63149;48.086;-1.606;2022-09-21T14:27:48;21.00;82.50
39277;DHT22;63149;48.086;-1.606;2022-09-21T14:30:16;20.90;83.50
39277;DHT22;63149;48.086;-1.606;2022-09-21T14:32:44;20.90;84.40
39277;DHT22;63149;48.086;-1.606;2022-09-21T14:35:14;20.80;83.40
39277;DHT22;63149;48.086;-1.606;2022-09-21T14:37:44;20.90;84.90
39277;DHT22;63149;48.086;-1.606;2022-09-21T14:40:15;20.90;84.80
39277;DHT22;63149;48.086;-1.606;2022-09-21T14:42:43;20.80;84.30
39277;DHT22;63149;48.086;-1.606;2022-09-21T14:45:13;20.80;83.60
39277;DHT22;63149;48.086;-1.606;2022-09-21T14:47:49;20.80;83.70
39277;DHT22;63149;48.086;-1.606;2022-09-21T14:50:27;20.70;83.20
39277;DHT22;63149;48.086;-1.606;2022-09-21T14:55:47;20.70;84.60
39277;DHT22;63149;48.086;-1.606;2022-09-21T14:58:18;20.80;85.70
39277;DHT22;63149;48.086;-1.606;2022-09-21T15:00:47;20.80;85.50
39277;DHT22;63149;48.086;-1.606;2022-09-21T15:03:19;20.80;85.20
39277;DHT22;63149;48.086;-1.606;2022-09-21T15:05:53;20.80;85.00
39277;DHT22;63149;48.086;-1.606;2022-09-21T15:08:29;20.80;83.90
39277;DHT22;63149;48.086;-1.606;2022-09-21T15:11:19;20.80;84.70
39277;DHT22;63149;48.086;-1.606;2022-09-21T15:13:50;20.80;86.10
39277;DHT22;63149;48.086;-1.606;2022-09-21T15:19:10;20.90;85.20
39277;DHT22;63149;48.086;-1.606;2022-09-21T15:21:41;20.90;84.50
39277;DHT22;63149;48.086;-1.606;2022-09-21T15:24:16;20.90;86.00
39277;DHT22;63149;48.086;-1.606;2022-09-21T15:26:43;20.90;85.20
39277;DHT22;63149;48.086;-1.606;2022-09-21T15:29:15;20.80;84.10
39277;DHT22;63149;48.086;-1.606;2022-09-21T15:31:45;20.80;83.30
39277;DHT22;63149;48.086;-1.606;2022-09-21T15:34:12;20.90;85.20
39277;DHT22;63149;48.086;-1.606;2022-09-21T15:36:42;20.90;84.80
39277;DHT22;63149;48.086;-1.606;2022-09-21T15:39:22;20.90;84.20
39277;DHT22;63149;48.086;-1.606;2022-09-21T15:41:53;20.90;85.10
39277;DHT22;63149;48.086;-1.606;2022-09-21T15:44:22;20.90;86.20
39277;DHT22;63149;48.086;-1.606;2022-09-21T15:46:49;20.80;84.60
39277;DHT22;63149;48.086;-1.606;2022-09-21T15:49:17;20.80;85.20
39277;DHT22;63149;48.086;-1.606;2022-09-21T15:51:47;20.80;85.70
39277;DHT22;63149;48.086;-1.606;2022-09-21T15:54:22;20.80;86.00
39277;DHT22;63149;48.086;-1.606;2022-09-21T15:56:51;20.80;86.20
39277;DHT22;63149;48.086;-1.606;2022-09-21T15:59:18;20.90;86.70
39277;DHT22;63149;48.086;-1.606;2022-09-21T16:01:46;20.90;86.80
39277;DHT22;63149;48.086;-1.606;2022-09-21T16:04:15;20.80;86.40
39277;DHT22;63149;48.086;-1.606;2022-09-21T16:06:45;20.80;85.10
39277;DHT22;63149;48.086;-1.606;2022-09-21T16:09:31;20.80;86.50
39277;DHT22;63149;48.086;-1.606;2022-09-21T16:12:02;20.80;86.40
39277;DHT22;63149;48.086;-1.606;2022-09-21T16:14:48;20.80;86.90
39277;DHT22;63149;48.086;-1.606;2022-09-21T16:17:21;20.70;86.50
39277;DHT22;63149;48.086;-1.606;2022-09-21T16:20:14;20.70;86.30
39277;DHT22;63149;48.086;-1.606;2022-09-21T16:22:42;20.60;86.10
39277;DHT22;63149;48.086;-1.606;2022-09-21T16:25:18;20.60;86.30
39277;DHT22;63149;48.086;-1.606;2022-09-21T16:27:48;20.60;86.80
39277;DHT22;63149;48.086;-1.606;2022-09-21T16:32:57;20.50;87.30
39277;DHT22;63149;48.086;-1.606;2022-09-21T16:35:25;20.50;87.40
39277;DHT22;63149;48.086;-1.606;2022-09-21T16:37:53;20.50;87.00
39277;DHT22;63149;48.086;-1.606;2022-09-21T16:40:24;20.40;87.30
39277;DHT22;63149;48.086;-1.606;2022-09-21T16:42:51;20.40;87.80
39277;DHT22;63149;48.086;-1.606;2022-09-21T16:45:19;20.40;88.80
39277;DHT22;63149;48.086;-1.606;2022-09-21T16:47:47;20.40;88.90
39277;DHT22;63149;48.086;-1.606;2022-09-21T16:50:15;20.40;88.90
39277;DHT22;63149;48.086;-1.606;2022-09-21T16:52:43;20.40;89.60
39277;DHT22;63149;48.086;-1.606;2022-09-21T16:55:12;20.30;90.00
39277;DHT22;63149;48.086;-1.606;2022-09-21T16:57:41;20.30;89.80
39277;DHT22;63149;48.086;-1.606;2022-09-21T17:00:08;20.20;90.20
39277;DHT22;63149;48.086;-1.606;2022-09-21T17:02:36;20.20;90.30
39277;DHT22;63149;48.086;-1.606;2022-09-21T17:05:07;20.20;90.10
39277;DHT22;63149;48.086;-1.606;2022-09-21T17:07:34;20.20;90.10
39277;DHT22;63149;48.086;-1.606;2022-09-21T17:10:04;20.20;90.30
39277;DHT22;63149;48.086;-1.606;2022-09-21T17:12:35;20.10;90.50
39277;DHT22;63149;48.086;-1.606;2022-09-21T17:15:05;20.00;90.50
39277;DHT22;63149;48.086;-1.606;2022-09-21T17:17:34;20.00;90.60
39277;DHT22;63149;48.086;-1.606;2022-09-21T17:20:01;20.00;90.80
39277;DHT22;63149;48.086;-1.606;2022-09-21T17:22:32;20.00;90.90
39277;DHT22;63149;48.086;-1.606;2022-09-21T17:24:59;19.90;90.70
39277;DHT22;63149;48.086;-1.606;2022-09-21T17:27:25;19.90;90.90
39277;DHT22;63149;48.086;-1.606;2022-09-21T17:29:53;19.90;91.00
39277;DHT22;63149;48.086;-1.606;2022-09-21T17:32:22;19.80;91.30
39277;DHT22;63149;48.086;-1.606;2022-09-21T17:34:50;19.80;91.30
39277;DHT22;63149;48.086;-1.606;2022-09-21T17:37:20;19.70;91.60
39277;DHT22;63149;48.086;-1.606;2022-09-21T17:39:49;19.70;91.70
39277;DHT22;63149;48.086;-1.606;2022-09-21T17:42:16;19.70;91.80
39277;DHT22;63149;48.086;-1.606;2022-09-21T17:44:49;19.60;91.70
39277;DHT22;63149;48.086;-1.606;2022-09-21T17:47:20;19.50;92.00
39277;DHT22;63149;48.086;-1.606;2022-09-21T17:49:50;19.50;92.50
39277;DHT22;63149;48.086;-1.606;2022-09-21T17:52:17;19.40;93.20
39277;DHT22;63149;48.086;-1.606;2022-09-21T17:55:02;19.30;93.00
39277;DHT22;63149;48.086;-1.606;2022-09-21T17:57:46;19.30;93.00
39277;DHT22;63149;48.086;-1.606;2022-09-21T18:00:16;19.30;93.00
39277;DHT22;63149;48.086;-1.606;2022-09-21T18:02:43;19.20;94.00
39277;DHT22;63149;48.086;-1.606;2022-09-21T18:05:17;19.10;94.20
39277;DHT22;63149;48.086;-1.606;2022-09-21T18:07:47;19.10;94.40
39277;DHT22;63149;48.086;-1.606;2022-09-21T18:10:14;19.00;94.50
39277;DHT22;63149;48.086;-1.606;2022-09-21T18:12:53;18.90;94.80
39277;DHT22;63149;48.086;-1.606;2022-09-21T18:15:24;18.80;94.20
39277;DHT22;63149;48.086;-1.606;2022-09-21T18:18:00;18.80;95.00
39277;DHT22;63149;48.086;-1.606;2022-09-21T18:20:32;18.70;94.50
39277;DHT22;63149;48.086;-1.606;2022-09-21T18:23:05;18.60;95.20
39277;DHT22;63149;48.086;-1.606;2022-09-21T18:25:37;18.50;95.30
39277;DHT22;63149;48.086;-1.606;2022-09-21T18:28:13;18.40;95.60
39277;DHT22;63149;48.086;-1.606;2022-09-21T18:30:45;18.40;95.60
39277;DHT22;63149;48.086;-1.606;2022-09-21T18:33:15;18.30;95.80
39277;DHT22;63149;48.086;-1.606;2022-09-21T18:36:01;18.30;95.70
39277;DHT22;63149;48.086;-1.606;2022-09-21T18:38:30;18.20;96.30
39277;DHT22;63149;48.086;-1.606;2022-09-21T18:41:02;18.10;95.80
39277;DHT22;63149;48.086;-1.606;2022-09-21T18:43:33;18.00;96.00
39277;DHT22;63149;48.086;-1.606;2022-09-21T18:46:02;17.90;96.10
39277;DHT22;63149;48.086;-1.606;2022-09-21T18:48:33;17.90;96.90
39277;DHT22;63149;48.086;-1.606;2022-09-21T18:51:05;17.80;96.90
39277;DHT22;63149;48.086;-1.606;2022-09-21T18:53:35;17.70;97.00
39277;DHT22;63149;48.086;-1.606;2022-09-21T18:56:09;17.70;97.50
39277;DHT22;63149;48.086;-1.606;2022-09-21T18:58:37;17.60;97.10
39277;DHT22;63149;48.086;-1.606;2022-09-21T19:01:04;17.60;98.40
39277;DHT22;63149;48.086;-1.606;2022-09-21T19:03:31;17.50;98.00
39277;DHT22;63149;48.086;-1.606;2022-09-21T19:06:19;17.40;97.40
39277;DHT22;63149;48.086;-1.606;2022-09-21T19:08:49;17.30;98.30
39277;DHT22;63149;48.086;-1.606;2022-09-21T19:11:19;17.20;98.20
39277;DHT22;63149;48.086;-1.606;2022-09-21T19:13:49;17.10;98.10
39277;DHT22;63149;48.086;-1.606;2022-09-21T19:16:19;17.10;98.80
39277;DHT22;63149;48.086;-1.606;2022-09-21T19:18:52;17.00;98.80
39277;DHT22;63149;48.086;-1.606;2022-09-21T19:21:24;17.00;99.00
39277;DHT22;63149;48.086;-1.606;2022-09-21T19:23:57;16.90;99.30
39277;DHT22;63149;48.086;-1.606;2022-09-21T19:26:28;16.90;99.20
39277;DHT22;63149;48.086;-1.606;2022-09-21T19:31:43;16.60;99.90
39277;DHT22;63149;48.086;-1.606;2022-09-21T19:34:12;16.60;99.90
39277;DHT22;63149;48.086;-1.606;2022-09-21T19:36:41;16.50;99.90
39277;DHT22;63149;48.086;-1.606;2022-09-21T19:39:08;16.40;99.90
39277;DHT22;63149;48.086;-1.606;2022-09-21T19:41:39;16.40;99.90
39277;DHT22;63149;48.086;-1.606;2022-09-21T19:44:11;16.30;99.90
39277;DHT22;63149;48.086;-1.606;2022-09-21T19:46:42;16.10;99.90
39277;DHT22;63149;48.086;-1.606;2022-09-21T19:49:13;16.00;99.90
39277;DHT22;63149;48.086;-1.606;2022-09-21T19:51:45;16.00;99.90
39277;DHT22;63149;48.086;-1.606;2022-09-21T19:54:13;15.90;99.90
39277;DHT22;63149;48.086;-1.606;2022-09-21T19:56:58;15.80;99.90
39277;DHT22;63149;48.086;-1.606;2022-09-21T19:59:42;15.70;99.90
39277;DHT22;63149;48.086;-1.606;2022-09-21T20:02:10;15.80;99.90
39277;DHT22;63149;48.086;-1.606;2022-09-21T20:04:39;15.70;99.90
39277;DHT22;63149;48.086;-1.606;2022-09-21T20:07:12;15.70;99.90
39277;DHT22;63149;48.086;-1.606;2022-09-21T20:09:43;15.60;99.90
39277;DHT22;63149;48.086;-1.606;2022-09-21T20:12:13;15.40;99.90
39277;DHT22;63149;48.086;-1.606;2022-09-21T20:14:45;15.40;99.90
39277;DHT22;63149;48.086;-1.606;2022-09-21T20:17:15;15.40;99.90
39277;DHT22;63149;48.086;-1.606;2022-09-21T20:19:46;15.40;99.90
39277;DHT22;63149;48.086;-1.606;2022-09-21T20:22:17;15.40;99.90
39277;DHT22;63149;48.086;-1.606;2022-09-21T20:24:48;15.30;99.90
39277;DHT22;63149;48.086;-1.606;2022-09-21T20:27:21;15.30;99.90
39277;DHT22;63149;48.086;-1.606;2022-09-21T20:29:50;15.10;99.90
39277;DHT22;63149;48.086;-1.606;2022-09-21T20:32:17;15.10;99.90
39277;DHT22;63149;48.086;-1.606;2022-09-21T20:34:45;15.00;99.90
39277;DHT22;63149;48.086;-1.606;2022-09-21T20:37:14;14.90;99.90
39277;DHT22;63149;48.086;-1.606;2022-09-21T20:39:42;14.80;99.90
39277;DHT22;63149;48.086;-1.606;2022-09-21T20:42:10;15.00;99.90
39277;DHT22;63149;48.086;-1.606;2022-09-21T20:44:40;15.00;99.90
39277;DHT22;63149;48.086;-1.606;2022-09-21T20:47:07;14.90;99.90
39277;DHT22;63149;48.086;-1.606;2022-09-21T20:49:34;14.90;99.90
39277;DHT22;63149;48.086;-1.606;2022-09-21T20:52:01;14.80;99.90
39277;DHT22;63149;48.086;-1.606;2022-09-21T20:54:27;14.70;99.90
39277;DHT22;63149;48.086;-1.606;2022-09-21T20:56:56;14.70;99.90
39277;DHT22;63149;48.086;-1.606;2022-09-21T20:59:22;14.60;99.90
39277;DHT22;63149;48.086;-1.606;2022-09-21T21:01:49;14.50;99.90
39277;DHT22;63149;48.086;-1.606;2022-09-21T21:04:16;14.50;99.90
39277;DHT22;63149;48.086;-1.606;2022-09-21T21:06:43;14.40;99.90
39277;DHT22;63149;48.086;-1.606;2022-09-21T21:09:10;14.40;99.90
39277;DHT22;63149;48.086;-1.606;2022-09-21T21:11:37;14.40;99.90
39277;DHT22;63149;48.086;-1.606;2022-09-21T21:14:05;14.40;99.90